Flight Track Log - Related Links

Times and Time Zones

All times are in EDT time to prevent confusion due to time zone crossing. See the FFT920 flight status page for this flight to view local times or setup timezone preferences in your user account.

Time Position Orientation Groundspeed Altitude Reporting Facility
EDT Latitude Longitude Course Direction KTS MPH feet Rate Location/Type
Fri 08:44:14 AM 35.8380 -78.8860 263° West 242 278 3,600  Level FlightAware ADS-B
Fri 08:44:44 AM 35.8540 -78.9240 297° West 262 302 5,100 3,000 Climbing FlightAware ADS-B
Fri 08:44:58 AM 35.8670 -78.9320 333° Northwest 264 304 5,800 3,333 Climbing FlightAware ADS-B
Fri 08:45:20 AM 35.8940 -78.9370 351° North 268 308 7,100 3,088 Climbing FlightAware ADS-B
Fri 08:46:06 AM 35.9530 -78.9200 13° North 297 342 9,300 2,864 Climbing FlightAware ADS-B
Fri 08:46:48 AM 36.0040 -78.8840 30° Northeast 313 360 11,300 2,385 Climbing FlightAware ADS-B
Fri 08:47:24 AM 36.0520 -78.8520 28° Northeast 347 399 12,400 2,154 Climbing FlightAware ADS-B
Fri 08:48:06 AM 36.1120 -78.8080 31° Northeast 367 422 14,100 2,541 Climbing FlightAware ADS-B
Fri 08:48:49 AM 36.1810 -78.7590 30° Northeast 377 434 16,000 2,414 Climbing FlightAware ADS-B
Fri 08:49:33 AM 36.2500 -78.7110 29° Northeast 392 451 17,600 2,188 Climbing FlightAware ADS-B
Fri 08:50:14 AM 36.3150 -78.6640 30° Northeast 404 465 19,100 2,268 Climbing FlightAware ADS-B
Fri 08:50:55 AM 36.3830 -78.6160 30° Northeast 407 468 20,700 2,047 Climbing FlightAware ADS-B
Fri 08:51:39 AM 36.4620 -78.5740 23° Northeast 421 484 22,000 1,650 Climbing FlightAware ADS-B
Fri 08:52:15 AM 36.5290 -78.5500 16° North 435 501 22,900 935 Climbing FlightAware ADS-B
Fri 08:52:56 AM 36.6000 -78.5250 16° North 440 506 23,200 234 Climbing FlightAware ADS-B
Fri 08:53:32 AM 36.6600 -78.5040 16° North 440 506 23,200  Level FlightAware ADS-B
Fri 08:54:08 AM 36.7190 -78.4820 17° North 440 506 23,200  Level FlightAware ADS-B
Fri 08:55:09 AM 36.8210 -78.4460 16° North 440 506 23,200  Level FlightAware ADS-B
Fri 08:55:45 AM 36.8810 -78.4240 16° North 440 506 23,200 4,800 Level FlightAware ADS-B
Fri 08:56:34 AM 37.0100 -78.2580 46° Northeast 465 535 30,000 5,310 Climbing FlightAware ADS-B
Fri 08:57:12 AM 37.0770 -78.2030 33° Northeast 461 531 30,900 706 Climbing FlightAware ADS-B
Fri 08:57:59 AM 37.1510 -78.1430 33° Northeast 458 527 31,000 51 Climbing FlightAware ADS-B
Fri 08:59:10 AM 37.2850 -78.0330 33° Northeast 459 528 31,000  Level FlightAware ADS-B
Fri 08:59:51 AM 37.3610 -77.9700 33° Northeast 457 526 31,000  Level FlightAware ADS-B
Fri 09:00:37 AM 37.4410 -77.9030 34° Northeast 455 524 31,000  Level FlightAware ADS-B
Fri 09:01:11 AM 37.5000 -77.8520 34° Northeast 454 522 31,000  Level FlightAware ADS-B
Fri 09:01:54 AM 37.5720 -77.7900 34° Northeast 451 519 31,000 -145 Level FlightAware ADS-B
Fri 09:02:34 AM 37.6420 -77.7260 36° Northeast 451 519 30,800 -357 Descending FlightAware ADS-B
Fri 09:03:18 AM 37.7150 -77.6590 36° Northeast 451 519 30,500 -439 Descending FlightAware ADS-B
Fri 09:03:56 AM 37.7800 -77.6010 35° Northeast 448 516 30,200 -357 Descending FlightAware ADS-B
Fri 09:04:42 AM 37.8570 -77.5300 36° Northeast 445 512 30,000 -140 Descending FlightAware ADS-B
Fri 09:05:22 AM 37.9240 -77.4690 36° Northeast 446 513 30,000  Level FlightAware ADS-B
Fri 09:06:04 AM 37.9950 -77.4050 35° Northeast 447 514 30,000  Level FlightAware ADS-B
Fri 09:06:40 AM 38.0550 -77.3490 36° Northeast 448 516 30,000  Level FlightAware ADS-B
Fri 09:07:24 AM 38.1290 -77.2820 35° Northeast 449 517 30,000  Level FlightAware ADS-B
Fri 09:08:05 AM 38.1990 -77.2170 36° Northeast 450 518 30,000  Level FlightAware ADS-B
Fri 09:08:46 AM 38.2670 -77.1540 36° Northeast 448 516 30,000  Level FlightAware ADS-B
Fri 09:09:27 AM 38.3370 -77.0890 36° Northeast 447 514 30,000  Level FlightAware ADS-B
Fri 09:10:08 AM 38.4050 -77.0260 36° Northeast 445 512 30,000  Level FlightAware ADS-B
Fri 09:10:53 AM 38.4800 -76.9560 36° Northeast 444 511 30,000 -947 Level FlightAware ADS-B
Fri 09:11:43 AM 38.5620 -76.8800 36° Northeast 459 528 28,500 -2,400 Descending FlightAware ADS-B
Fri 09:12:23 AM 38.6320 -76.8140 36° Northeast 464 534 26,400 -3,259 Descending FlightAware ADS-B
Fri 09:13:04 AM 38.6980 -76.7410 41° Northeast 462 532 24,100 -2,727 Descending FlightAware ADS-B
Fri 09:13:40 AM 38.7240 -76.6540 69° East 435 501 22,900 -1,778 Descending FlightAware ADS-B
Fri 09:14:25 AM 38.7630 -76.5470 65° Northeast 439 505 21,700 -1,500 Descending FlightAware ADS-B
Fri 09:15:00 AM 38.8040 -76.4770 53° Northeast 423 487 20,900 -1,481 Descending FlightAware ADS-B
Fri 09:15:42 AM 38.8530 -76.3950 52° Northeast 398 458 19,800 -1,259 Descending FlightAware ADS-B
Fri 09:16:21 AM 38.8950 -76.3240 53° Northeast 379 436 19,200 -1,000 Descending FlightAware ADS-B
Fri 09:17:00 AM 38.9350 -76.2560 53° Northeast 370 426 18,500 -1,000 Descending FlightAware ADS-B
Fri 09:17:45 AM 38.9810 -76.1760 53° Northeast 367 422 17,800 -977 Descending FlightAware ADS-B
Fri 09:18:26 AM 39.0220 -76.1060 53° Northeast 358 412 17,100 -988 Descending FlightAware ADS-B
Fri 09:19:10 AM 39.0660 -76.0310 53° Northeast 349 402 16,400 -1,000 Descending FlightAware ADS-B
Fri 09:19:50 AM 39.1050 -75.9640 53° Northeast 352 405 15,700 -1,105 Descending FlightAware ADS-B
Fri 09:20:26 AM 39.1390 -75.9050 53° Northeast 345 397 15,000 -1,308 Descending FlightAware ADS-B
Fri 09:21:08 AM 39.1780 -75.8380 53° Northeast 339 390 14,000 -1,373 Descending FlightAware ADS-B
Fri 09:21:49 AM 39.2150 -75.7730 54° Northeast 327 376 13,100 -1,256 Descending FlightAware ADS-B
Fri 09:22:34 AM 39.2560 -75.7030 53° Northeast 302 348 12,200 -1,071 Descending FlightAware ADS-B
Fri 09:23:13 AM 39.2870 -75.6530 51° Northeast 284 327 11,600 -1,024 Descending FlightAware ADS-B
Fri 09:23:56 AM 39.3350 -75.6100 35° Northeast 275 316 10,800 -1,012 Descending FlightAware ADS-B
Fri 09:24:36 AM 39.3750 -75.5750 34° Northeast 275 316 10,200 -873 Descending FlightAware ADS-B
Fri 09:24:51 AM 39.3950 -75.5620 27° Northeast 275 316 10,000 -391 Descending FlightAware ADS-B
Fri 09:25:22 AM 39.4360 -75.5470 16° North 287 330 9,900 -107 Descending FlightAware ADS-B
Fri 09:25:47 AM 39.4640 -75.5270 29° Northeast 284 327 9,900  Level FlightAware ADS-B
Fri 09:26:18 AM 39.5000 -75.5000 30° Northeast 285 328 9,900 -107 Level FlightAware ADS-B
Fri 09:26:43 AM 39.5270 -75.4790 31° Northeast 284 327 9,800 -480 Descending FlightAware ADS-B
Fri 09:27:08 AM 39.5560 -75.4570 30° Northeast 284 327 9,500 -536 Descending FlightAware ADS-B
Fri 09:27:39 AM 39.5910 -75.4300 31° Northeast 283 326 9,300 -429 Descending FlightAware ADS-B
Fri 09:28:04 AM 39.6190 -75.4080 31° Northeast 281 323 9,100 -429 Descending FlightAware ADS-B
Fri 09:28:35 AM 39.6520 -75.3820 31° Northeast 280 322 8,900 -300 Descending FlightAware ADS-B
Fri 09:28:44 AM 39.6630 -75.3730 32° Northeast 281 323 8,900  Level FlightAware ADS-B
Fri 09:29:09 AM 39.6910 -75.3520 30° Northeast 281 323 8,900  Level FlightAware ADS-B
Fri 09:29:38 AM 39.7220 -75.3270 32° Northeast 280 322 8,900  Level FlightAware ADS-B
Fri 09:29:53 AM 39.7410 -75.3130 30° Northeast 280 322 8,900 -400 Level FlightAware ADS-B
Fri 09:30:08 AM 39.7560 -75.3010 32° Northeast 278 320 8,700 -1,333 Descending FlightAware ADS-B
Fri 09:30:38 AM 39.7890 -75.2750 31° Northeast 270 311 7,900 -1,560 Descending FlightAware ADS-B
Fri 09:30:58 AM 39.8110 -75.2590 29° Northeast 269 310 7,400 -1,500 Descending FlightAware ADS-B
Fri 09:31:18 AM 39.8310 -75.2420 33° Northeast 266 306 6,900 -1,500 Descending FlightAware ADS-B
Fri 09:31:54 AM 39.8740 -75.2090 30° Northeast 271 312 6,000 -938 Descending FlightAware ADS-B
Fri 09:32:22 AM 39.9030 -75.1860 31° Northeast 273 314 5,900 -107 Descending FlightAware ADS-B
Fri 09:32:50 AM 39.9340 -75.1610 32° Northeast 271 312 5,900  Level FlightAware ADS-B
Fri 09:33:02 AM 39.9450 -75.1530 29° Northeast 270 311 5,900  Level FlightAware ADS-B
Fri 09:33:30 AM 39.9740 -75.1300 31° Northeast 244 281 5,900  Level FlightAware ADS-B
Fri 09:33:58 AM 40.0020 -75.1080 31° Northeast 237 273 5,900 -231 Level FlightAware ADS-B
Fri 09:34:22 AM 40.0240 -75.0910 31° Northeast 233 268 5,700 -857 Descending FlightAware ADS-B
Fri 09:34:54 AM 40.0520 -75.0690 31° Northeast 229 264 5,100 -1,258 Descending FlightAware ADS-B
Fri 09:35:24 AM 40.0810 -75.0460 31° Northeast 228 262 4,400 -1,435 Descending FlightAware ADS-B
Fri 09:35:40 AM 40.0940 -75.0350 33° Northeast 229 264 4,000 -1,421 Descending FlightAware ADS-B
Fri 09:36:02 AM 40.1140 -75.0200 30° Northeast 224 258 3,500 -964 Descending FlightAware ADS-B
Fri 09:36:36 AM 40.1420 -74.9960 33° Northeast 205 236 3,100 -667 Descending FlightAware ADS-B
Fri 09:36:56 AM 40.1560 -74.9770 46° Northeast 190 219 2,900 -536 Descending FlightAware ADS-B
Fri 09:37:32 AM 40.1760 -74.9500 46° Northeast 168 193 2,600 -600 Descending FlightAware ADS-B
Fri 09:37:56 AM 40.1880 -74.9330 47° Northeast 162 186 2,300 -367 Descending FlightAware ADS-B
Fri 09:38:21 AM 40.1990 -74.9190 44° Northeast 162 186 2,300 -800 Level FlightAware ADS-B
Fri 09:38:56 AM 40.2170 -74.8940 47° Northeast 140 161 1,500 -740 Descending FlightAware ADS-B
Fri 09:39:34 AM 40.2320 -74.8740 46° Northeast 140 161 1,400 -539 Descending FlightAware ADS-B
Fri 09:40:25 AM 40.2500 -74.8500 46° Northeast 114 131 700 -824 Descending Philadelphia TRACON

Login

Don't have an account? Register now (free) for customized features, flight alerts, and more!